createdAt,value
2023-04-15T00:01:12.247Z,99.90
2023-04-15T00:03:39.463Z,99.90
2023-04-15T00:06:06.904Z,99.90
2023-04-15T00:08:33.693Z,99.90
2023-04-15T00:11:03.162Z,99.90
2023-04-15T00:13:30.179Z,99.90
2023-04-15T00:15:56.932Z,89.70
2023-04-15T00:18:24.662Z,85.40
2023-04-15T00:20:52.534Z,83.30
2023-04-15T00:23:19.493Z,81.60
2023-04-15T00:25:46.992Z,73.50
2023-04-15T00:28:14.160Z,86.50
2023-04-15T00:30:40.889Z,99.90
2023-04-15T00:33:07.987Z,99.90
2023-04-15T00:35:35.902Z,99.90
2023-04-15T00:38:02.868Z,99.90
2023-04-15T00:40:29.646Z,99.90
2023-04-15T00:42:56.600Z,99.90
2023-04-15T00:45:24.125Z,99.90
2023-04-15T00:47:51.277Z,99.90
2023-04-15T00:50:18.023Z,99.90
2023-04-15T00:52:44.808Z,99.90
2023-04-15T00:55:11.816Z,99.90
2023-04-15T00:57:39.661Z,99.90
2023-04-15T01:00:08.788Z,99.90
2023-04-15T01:02:36.727Z,99.90
2023-04-15T01:05:04.469Z,99.90
2023-04-15T01:07:32.000Z,99.90
2023-04-15T01:09:58.799Z,99.90
2023-04-15T01:12:27.126Z,99.90
2023-04-15T01:14:55.003Z,99.90
2023-04-15T01:17:21.847Z,99.90
2023-04-15T01:19:48.777Z,99.90
2023-04-15T01:22:16.144Z,1.00
2023-04-15T01:24:56.995Z,1.00
2023-04-15T01:27:23.878Z,99.90
2023-04-15T01:29:50.596Z,1.00
2023-04-15T01:32:17.375Z,1.00
2023-04-15T01:34:44.144Z,1.00
2023-04-15T01:37:11.257Z,1.00
2023-04-15T01:39:37.977Z,1.00
2023-04-15T01:42:04.708Z,1.00
2023-04-15T01:44:33.283Z,1.00
2023-04-15T01:47:00.693Z,99.90
2023-04-15T01:49:27.661Z,99.90
2023-04-15T01:51:54.412Z,99.90
2023-04-15T01:54:21.506Z,99.90
2023-04-15T01:56:48.436Z,99.90
2023-04-15T01:59:15.297Z,99.90
2023-04-15T02:01:42.130Z,99.90
2023-04-15T02:04:16.418Z,99.90
2023-04-15T02:06:43.860Z,99.90
2023-04-15T02:09:10.829Z,99.90
2023-04-15T02:11:40.468Z,99.90
2023-04-15T02:14:07.232Z,99.90
2023-04-15T02:16:34.335Z,99.90
2023-04-15T02:19:01.355Z,1.00
2023-04-15T02:21:28.464Z,99.90
2023-04-15T02:23:55.931Z,99.90
2023-04-15T02:26:22.908Z,99.90
2023-04-15T02:28:51.386Z,99.90
2023-04-15T02:31:18.439Z,99.90
2023-04-15T02:33:45.494Z,99.90
2023-04-15T02:36:12.470Z,99.90
2023-04-15T02:38:42.299Z,1.00
2023-04-15T02:41:11.899Z,99.90
2023-04-15T02:43:39.946Z,99.90
2023-04-15T02:46:07.366Z,99.90
2023-04-15T02:48:34.295Z,99.90
2023-04-15T02:51:19.836Z,1.00
2023-04-15T02:53:50.285Z,1.00
2023-04-15T02:56:17.381Z,1.00
2023-04-15T02:58:50.561Z,1.00
2023-04-15T03:01:17.403Z,99.90
2023-04-15T03:03:44.264Z,99.90
2023-04-15T03:06:11.750Z,99.90
2023-04-15T03:08:38.552Z,1.00
2023-04-15T03:11:05.359Z,1.00
2023-04-15T03:13:32.148Z,1.00
2023-04-15T03:15:58.988Z,1.00
2023-04-15T03:18:25.879Z,1.00
2023-04-15T03:20:52.665Z,1.00
2023-04-15T03:23:19.769Z,1.00
2023-04-15T03:25:46.586Z,1.00
2023-04-15T03:28:13.431Z,1.00
2023-04-15T03:30:40.238Z,1.00
2023-04-15T03:33:07.048Z,1.00
2023-04-15T03:35:34.455Z,1.00
2023-04-15T03:38:01.470Z,1.00
2023-04-15T03:40:28.464Z,1.00
2023-04-15T03:42:55.243Z,1.00
2023-04-15T03:45:22.022Z,1.00
2023-04-15T03:47:49.820Z,1.00
2023-04-15T03:50:16.724Z,1.00
2023-04-15T03:52:44.944Z,1.00
2023-04-15T03:55:11.735Z,1.00
2023-04-15T03:57:39.313Z,1.00
2023-04-15T04:00:06.765Z,1.00
2023-04-15T04:02:33.601Z,1.00
2023-04-15T04:05:00.649Z,1.00
2023-04-15T04:07:27.474Z,1.00
2023-04-15T04:09:54.201Z,1.00
2023-04-15T04:12:20.957Z,1.00
2023-04-15T04:14:48.308Z,1.00
2023-04-15T04:17:15.055Z,1.00
2023-04-15T04:19:41.875Z,1.00
2023-04-15T04:22:08.597Z,1.00
2023-04-15T04:24:35.326Z,1.00
2023-04-15T04:27:02.154Z,1.00
2023-04-15T04:29:28.922Z,1.00
2023-04-15T04:31:55.754Z,1.00
2023-04-15T04:34:22.581Z,1.00
2023-04-15T04:36:49.296Z,1.00
2023-04-15T04:39:16.126Z,1.00
2023-04-15T04:41:42.869Z,1.00
2023-04-15T04:44:09.773Z,1.00
2023-04-15T04:46:36.511Z,1.00
2023-04-15T04:49:03.500Z,1.00
2023-04-15T04:51:30.999Z,1.00
2023-04-15T04:53:57.977Z,1.00
2023-04-15T04:56:24.749Z,1.00
2023-04-15T04:58:51.457Z,1.00
2023-04-15T05:01:18.304Z,1.00
2023-04-15T05:03:45.249Z,1.00
2023-04-15T05:06:12.115Z,1.00
2023-04-15T05:08:40.319Z,1.00
2023-04-15T05:11:07.341Z,1.00
2023-04-15T05:13:34.149Z,1.00
2023-04-15T05:16:00.944Z,73.20
2023-04-15T05:18:27.757Z,1.00
2023-04-15T05:20:54.473Z,1.00
2023-04-15T05:23:21.314Z,1.00
2023-04-15T05:25:48.100Z,1.00
2023-04-15T05:28:14.835Z,1.00
2023-04-15T05:30:41.793Z,1.00
2023-04-15T05:33:08.807Z,1.00
2023-04-15T05:35:35.681Z,1.00
2023-04-15T05:38:02.437Z,1.00
2023-04-15T05:40:30.860Z,1.00
2023-04-15T05:42:57.615Z,1.00
2023-04-15T05:45:24.459Z,1.00
2023-04-15T05:47:54.384Z,1.00
2023-04-15T05:50:21.331Z,1.00
2023-04-15T05:52:48.071Z,1.00
2023-04-15T05:55:14.882Z,1.00
2023-04-15T05:57:41.632Z,1.00
2023-04-15T06:00:09.216Z,1.00
2023-04-15T06:02:36.483Z,1.00
2023-04-15T06:05:04.053Z,1.00
2023-04-15T06:07:30.942Z,1.00
2023-04-15T06:09:57.723Z,1.00
2023-04-15T06:12:24.520Z,1.00
2023-04-15T06:14:51.447Z,1.00
2023-04-15T06:17:19.277Z,1.00
2023-04-15T06:19:46.073Z,1.00
2023-04-15T06:22:12.836Z,1.00
2023-04-15T06:24:39.648Z,1.00
2023-04-15T06:27:06.426Z,1.00
2023-04-15T06:29:33.163Z,1.00
2023-04-15T06:32:01.014Z,1.00
2023-04-15T06:34:27.754Z,1.00
2023-04-15T06:36:54.831Z,1.00
2023-04-15T06:39:21.562Z,1.00
2023-04-15T06:41:48.684Z,1.00
2023-04-15T06:44:17.044Z,1.00
2023-04-15T06:46:43.822Z,1.00
2023-04-15T06:49:11.429Z,1.00
2023-04-15T06:51:38.230Z,1.00
2023-04-15T06:54:06.205Z,1.00
2023-04-15T06:56:33.573Z,1.00
2023-04-15T06:59:00.904Z,1.00
2023-04-15T07:01:27.817Z,1.00
2023-04-15T07:03:54.657Z,1.00
2023-04-15T07:06:21.928Z,1.00
2023-04-15T07:08:48.875Z,1.00
2023-04-15T07:11:15.652Z,1.00
2023-04-15T07:13:42.408Z,1.00
2023-04-15T07:16:09.227Z,1.00
2023-04-15T07:18:36.106Z,1.00
2023-04-15T07:21:03.013Z,1.00
2023-04-15T07:23:29.774Z,1.00
2023-04-15T07:25:57.409Z,1.00
2023-04-15T07:28:24.276Z,1.00
2023-04-15T07:30:51.085Z,1.00
2023-04-15T07:33:17.926Z,1.00
2023-04-15T07:35:45.338Z,1.00
2023-04-15T07:38:14.649Z,1.00
2023-04-15T07:40:42.419Z,1.00
2023-04-15T07:43:09.926Z,1.00
2023-04-15T07:45:36.707Z,1.00
2023-04-15T07:48:03.764Z,1.00
2023-04-15T07:50:30.664Z,1.00
2023-04-15T07:52:57.741Z,1.00
2023-04-15T07:55:25.767Z,1.00
2023-04-15T07:57:52.917Z,1.00
2023-04-15T08:00:20.136Z,1.00
2023-04-15T08:02:48.376Z,1.00
2023-04-15T08:05:15.886Z,1.00
2023-04-15T08:07:42.679Z,1.00
2023-04-15T08:10:10.041Z,1.00
2023-04-15T08:12:37.149Z,1.00
2023-04-15T08:15:04.369Z,1.00
2023-04-15T08:17:31.188Z,1.00
2023-04-15T08:19:57.983Z,1.00
2023-04-15T08:22:25.014Z,99.90
2023-04-15T08:24:52.019Z,1.00
2023-04-15T08:27:19.723Z,99.90
2023-04-15T08:29:46.764Z,99.90
2023-04-15T08:32:13.568Z,99.90
2023-04-15T08:34:40.316Z,99.90
2023-04-15T08:37:07.141Z,99.90
2023-04-15T08:39:33.878Z,99.90
2023-04-15T08:42:02.668Z,99.90
2023-04-15T08:44:31.723Z,99.90
2023-04-15T08:47:01.842Z,99.90
2023-04-15T08:49:29.335Z,99.90
2023-04-15T08:51:58.723Z,99.90
2023-04-15T08:54:26.059Z,99.90
2023-04-15T08:56:52.922Z,99.90
2023-04-15T08:59:21.995Z,99.90
2023-04-15T09:01:50.812Z,99.90
2023-04-15T09:04:17.869Z,99.90
2023-04-15T09:06:44.981Z,99.90
2023-04-15T09:09:14.254Z,99.90
2023-04-15T09:11:41.895Z,99.90
2023-04-15T09:14:08.722Z,99.90
2023-04-15T09:17:01.374Z,99.90
2023-04-15T09:19:29.082Z,99.90
2023-04-15T09:21:59.221Z,99.90
2023-04-15T09:24:29.104Z,99.90
2023-04-15T09:26:58.347Z,99.90
2023-04-15T09:29:26.737Z,99.90
2023-04-15T09:31:53.549Z,99.90
2023-04-15T09:34:21.434Z,99.90
2023-04-15T09:36:50.403Z,99.90
2023-04-15T09:39:17.947Z,99.90
2023-04-15T09:41:45.141Z,99.90
2023-04-15T09:44:25.241Z,99.90
2023-04-15T09:46:52.057Z,99.90
2023-04-15T09:49:19.523Z,99.90
2023-04-15T09:52:01.438Z,99.90
2023-04-15T09:54:36.664Z,99.90
2023-04-15T09:57:08.100Z,99.90
2023-04-15T09:59:34.925Z,99.90
2023-04-15T10:02:04.512Z,99.90
2023-04-15T10:04:33.456Z,99.90
2023-04-15T10:07:02.089Z,99.90
2023-04-15T10:09:29.433Z,99.90
2023-04-15T10:11:56.220Z,99.90
2023-04-15T10:14:23.766Z,99.70
2023-04-15T10:16:51.197Z,95.70
2023-04-15T10:19:19.787Z,71.80
2023-04-15T10:21:46.645Z,34.90
2023-04-15T10:24:13.533Z,77.70
2023-04-15T10:26:40.371Z,35.00
2023-04-15T10:29:07.295Z,23.60
2023-04-15T10:31:34.160Z,23.20
2023-04-15T10:34:06.392Z,24.60
2023-04-15T10:36:33.430Z,5.60
2023-04-15T10:39:00.205Z,1.00
2023-04-15T10:41:31.127Z,1.00
2023-04-15T10:44:03.768Z,1.00
2023-04-15T10:46:46.668Z,1.00
2023-04-15T10:49:18.073Z,6.40
2023-04-15T10:51:47.199Z,10.00
2023-04-15T10:54:32.202Z,8.50
2023-04-15T10:57:02.778Z,10.30
2023-04-15T10:59:34.075Z,5.10
2023-04-15T11:02:02.431Z,23.20
2023-04-15T11:04:52.597Z,5.00
2023-04-15T11:07:44.624Z,1.00
2023-04-15T11:10:14.197Z,1.00
2023-04-15T11:12:42.037Z,1.00
2023-04-15T11:15:27.265Z,1.00
2023-04-15T11:17:54.137Z,1.00
2023-04-15T11:20:21.207Z,1.00
2023-04-15T11:22:49.259Z,1.00
2023-04-15T11:25:26.846Z,1.00
2023-04-15T11:27:54.623Z,1.00
2023-04-15T11:30:23.356Z,1.00
2023-04-15T11:32:51.209Z,1.00
2023-04-15T11:35:18.733Z,1.00
2023-04-15T11:37:46.678Z,1.00
2023-04-15T11:40:15.383Z,1.00
2023-04-15T11:42:49.705Z,1.00
2023-04-15T11:45:16.968Z,1.00
2023-04-15T11:47:43.816Z,1.00
2023-04-15T11:50:17.690Z,1.00
2023-04-15T11:52:54.073Z,1.00
2023-04-15T11:55:20.951Z,1.00
2023-04-15T11:57:47.722Z,1.00
2023-04-15T12:00:15.691Z,1.00
2023-04-15T12:02:43.495Z,1.00
2023-04-15T12:05:10.727Z,1.00
2023-04-15T12:07:59.946Z,1.00
2023-04-15T12:10:26.716Z,1.00
2023-04-15T12:12:53.574Z,1.00
2023-04-15T12:15:24.343Z,1.00
2023-04-15T12:17:55.004Z,1.00
2023-04-15T12:20:26.027Z,1.00
2023-04-15T12:22:53.455Z,1.00
2023-04-15T12:25:20.175Z,1.00
2023-04-15T12:27:52.068Z,1.00
2023-04-15T12:30:18.825Z,1.00
2023-04-15T12:32:46.503Z,1.00
2023-04-15T12:35:13.400Z,1.00
2023-04-15T12:37:40.224Z,1.00
2023-04-15T12:40:08.704Z,1.00
2023-04-15T12:42:35.596Z,1.00
2023-04-15T12:45:02.478Z,1.00
2023-04-15T12:47:29.268Z,1.00
2023-04-15T12:49:56.051Z,1.00
2023-04-15T12:52:23.120Z,1.00
2023-04-15T12:54:49.881Z,1.00
2023-04-15T12:57:17.091Z,1.00
2023-04-15T12:59:43.850Z,1.00
2023-04-15T13:02:10.680Z,1.00
2023-04-15T13:04:37.599Z,1.00
2023-04-15T13:07:04.456Z,1.00
2023-04-15T13:09:31.273Z,1.00
2023-04-15T13:11:58.402Z,1.00
2023-04-15T13:14:25.164Z,1.00
2023-04-15T13:16:51.991Z,1.00
2023-04-15T13:19:18.727Z,1.00
2023-04-15T13:21:45.531Z,1.00
2023-04-15T13:24:12.248Z,1.00
2023-04-15T13:26:39.050Z,1.00
2023-04-15T13:29:05.812Z,1.00
2023-04-15T13:31:32.717Z,1.00
2023-04-15T13:33:59.619Z,1.00
2023-04-15T13:36:27.295Z,1.00
2023-04-15T13:38:54.417Z,1.00
2023-04-15T13:41:21.379Z,1.00
2023-04-15T13:43:48.200Z,1.00
2023-04-15T13:46:15.161Z,1.00
2023-04-15T13:48:42.391Z,1.00
2023-04-15T13:51:09.228Z,1.00
2023-04-15T13:53:38.966Z,1.00
2023-04-15T13:56:07.863Z,1.00
2023-04-15T13:58:34.674Z,1.00
2023-04-15T14:01:03.265Z,1.00
2023-04-15T14:03:31.710Z,1.00
2023-04-15T14:05:58.766Z,1.00
2023-04-15T14:08:25.872Z,1.00
2023-04-15T14:10:52.636Z,1.00
2023-04-15T14:13:19.737Z,1.00
2023-04-15T14:15:47.069Z,1.00
2023-04-15T14:18:13.848Z,1.00
2023-04-15T14:20:40.637Z,1.00
2023-04-15T14:23:07.526Z,1.00
2023-04-15T14:25:34.433Z,1.00
2023-04-15T14:28:02.382Z,1.00
2023-04-15T14:30:29.183Z,1.00
2023-04-15T14:32:56.214Z,1.00
2023-04-15T14:35:25.405Z,1.00
2023-04-15T14:37:53.569Z,1.00
2023-04-15T14:40:20.428Z,1.00
2023-04-15T14:42:47.345Z,1.00
2023-04-15T14:45:14.132Z,1.00
2023-04-15T14:47:41.201Z,1.00
2023-04-15T14:50:08.433Z,1.00
2023-04-15T14:52:38.821Z,1.00
2023-04-15T14:55:07.426Z,1.00
2023-04-15T14:57:34.225Z,1.00
2023-04-15T15:00:01.033Z,1.00
2023-04-15T15:02:38.114Z,1.00
2023-04-15T15:05:06.692Z,1.00
2023-04-15T15:07:33.591Z,1.00
2023-04-15T15:10:00.463Z,1.00
2023-04-15T15:12:27.211Z,1.00
2023-04-15T15:14:56.106Z,1.00
2023-04-15T15:17:22.899Z,1.00
2023-04-15T15:19:49.675Z,1.00
2023-04-15T15:22:17.105Z,1.00
2023-04-15T15:24:44.838Z,1.00
2023-04-15T15:27:11.597Z,1.00
2023-04-15T15:29:38.362Z,1.00
2023-04-15T15:32:05.542Z,1.00
2023-04-15T15:34:32.265Z,1.00
2023-04-15T15:37:00.506Z,1.00
2023-04-15T15:39:27.774Z,1.00
2023-04-15T15:41:55.095Z,1.00
2023-04-15T15:44:21.908Z,1.00
2023-04-15T15:46:50.392Z,1.00
2023-04-15T15:49:17.205Z,1.00
2023-04-15T15:51:44.039Z,1.00
2023-04-15T15:54:10.817Z,1.00
2023-04-15T15:56:39.447Z,1.00
2023-04-15T15:59:06.489Z,1.00
2023-04-15T16:01:33.521Z,1.00
2023-04-15T16:04:00.870Z,1.00
2023-04-15T16:06:28.197Z,1.00
2023-04-15T16:08:55.113Z,1.00
2023-04-15T16:11:21.903Z,1.00
2023-04-15T16:13:48.651Z,1.00
2023-04-15T16:16:15.512Z,1.00
2023-04-15T16:18:42.312Z,1.00
2023-04-15T16:21:09.114Z,1.00
2023-04-15T16:23:36.462Z,1.00
2023-04-15T16:26:03.450Z,1.00
2023-04-15T16:28:30.183Z,1.00
2023-04-15T16:30:57.197Z,1.00
2023-04-15T16:33:24.122Z,1.00
2023-04-15T16:35:51.456Z,1.00
2023-04-15T16:38:18.369Z,1.00
2023-04-15T16:40:45.741Z,1.00
2023-04-15T16:43:12.489Z,1.00
2023-04-15T16:45:39.281Z,1.00
2023-04-15T16:48:06.286Z,1.00
2023-04-15T16:50:33.112Z,1.00
2023-04-15T16:52:59.957Z,1.00
2023-04-15T16:55:26.972Z,1.00
2023-04-15T16:58:01.852Z,1.00
2023-04-15T17:00:31.564Z,1.00
2023-04-15T17:02:59.956Z,1.00
2023-04-15T17:05:27.743Z,1.00
2023-04-15T17:07:55.274Z,1.00
2023-04-15T17:10:22.690Z,1.00
2023-04-15T17:12:52.001Z,1.00
2023-04-15T17:15:19.966Z,1.00
2023-04-15T17:17:46.801Z,1.00
2023-04-15T17:20:13.719Z,1.00
2023-04-15T17:22:40.709Z,1.00
2023-04-15T17:25:07.991Z,1.00
2023-04-15T17:27:34.816Z,1.00
2023-04-15T17:30:01.918Z,1.00
2023-04-15T17:32:31.852Z,1.00
2023-04-15T17:34:58.830Z,1.00
2023-04-15T17:37:25.634Z,1.00
2023-04-15T17:39:52.563Z,1.00
2023-04-15T17:42:19.463Z,1.00
2023-04-15T17:44:46.249Z,1.00
2023-04-15T17:47:12.977Z,1.00
2023-04-15T17:49:39.715Z,1.00
2023-04-15T17:52:06.600Z,1.00
2023-04-15T17:54:33.337Z,1.00
2023-04-15T17:57:01.365Z,1.00
2023-04-15T17:59:28.168Z,1.00
2023-04-15T18:01:55.545Z,1.00
2023-04-15T18:04:25.824Z,1.00
2023-04-15T18:06:53.342Z,1.00
2023-04-15T18:09:20.573Z,1.00
2023-04-15T18:11:48.425Z,1.00
2023-04-15T18:14:23.567Z,1.00
2023-04-15T18:17:00.615Z,1.00
2023-04-15T18:19:27.748Z,1.00
2023-04-15T18:21:54.574Z,1.00
2023-04-15T18:24:22.337Z,1.00
2023-04-15T18:26:49.406Z,1.00
2023-04-15T18:29:16.510Z,1.00
2023-04-15T18:31:43.456Z,1.00
2023-04-15T18:34:10.504Z,1.00
2023-04-15T18:36:37.282Z,1.00
2023-04-15T18:39:04.637Z,1.00
2023-04-15T18:41:31.674Z,1.00
2023-04-15T18:43:58.482Z,1.00
2023-04-15T18:46:26.398Z,1.00
2023-04-15T18:48:53.191Z,1.00
2023-04-15T18:51:20.485Z,1.00
2023-04-15T18:53:47.337Z,1.00
2023-04-15T18:56:14.114Z,1.00
2023-04-15T18:59:26.296Z,1.00
2023-04-15T19:01:27.928Z,1.00
2023-04-15T19:03:54.729Z,1.00
2023-04-15T19:06:22.288Z,1.00
2023-04-15T19:08:49.062Z,1.00
2023-04-15T19:11:16.033Z,1.00
2023-04-15T19:13:42.781Z,1.00
2023-04-15T19:16:09.641Z,1.00
2023-04-15T19:18:36.380Z,1.00
2023-04-15T19:21:04.013Z,1.00
2023-04-15T19:23:31.695Z,1.00
2023-04-15T19:25:58.838Z,1.00
2023-04-15T19:28:28.111Z,1.00
2023-04-15T19:30:55.064Z,1.00
2023-04-15T19:33:22.965Z,1.00
2023-04-15T19:35:52.612Z,1.00
2023-04-15T19:38:19.374Z,1.00
2023-04-15T19:40:46.158Z,1.00
2023-04-15T19:43:13.032Z,1.00
2023-04-15T19:45:39.831Z,1.00
2023-04-15T19:48:06.681Z,1.00
2023-04-15T19:50:33.581Z,1.00
2023-04-15T19:53:00.632Z,1.00
2023-04-15T19:55:27.427Z,1.00
2023-04-15T19:57:54.174Z,1.00
2023-04-15T20:00:21.504Z,1.00
2023-04-15T20:02:48.477Z,1.00
2023-04-15T20:05:15.530Z,1.00
2023-04-15T20:07:43.098Z,1.00
2023-04-15T20:10:13.036Z,1.00
2023-04-15T20:12:51.626Z,1.00
2023-04-15T20:15:20.102Z,1.00
2023-04-15T20:17:46.965Z,1.00
2023-04-15T20:20:13.858Z,1.00
2023-04-15T20:22:41.421Z,1.00
2023-04-15T20:25:08.635Z,1.00
2023-04-15T20:27:35.509Z,1.00
2023-04-15T20:30:04.253Z,1.00
2023-04-15T20:32:35.407Z,1.00
2023-04-15T20:35:03.520Z,1.00
2023-04-15T20:37:32.939Z,1.00
2023-04-15T20:40:00.713Z,1.00
2023-04-15T20:42:27.630Z,1.00
2023-04-15T20:44:54.459Z,1.00
2023-04-15T20:47:21.390Z,1.00
2023-04-15T20:49:48.279Z,1.00
2023-04-15T20:52:15.044Z,1.00
2023-04-15T20:54:41.809Z,1.00
2023-04-15T20:57:08.644Z,1.00
2023-04-15T20:59:36.010Z,1.00
2023-04-15T21:02:02.943Z,1.00
2023-04-15T21:04:29.840Z,1.00
2023-04-15T21:06:56.670Z,1.00
2023-04-15T21:09:24.831Z,1.00
2023-04-15T21:14:21.414Z,1.00
2023-04-15T21:16:48.242Z,1.00
2023-04-15T21:19:15.105Z,1.00
2023-04-15T21:21:41.862Z,1.00
2023-04-15T21:24:08.673Z,1.00
2023-04-15T21:26:36.209Z,1.00
2023-04-15T21:29:03.321Z,1.00
2023-04-15T21:31:30.450Z,1.00
2023-04-15T21:33:57.303Z,1.00
2023-04-15T21:36:24.128Z,1.00
2023-04-15T21:38:50.897Z,1.00
2023-04-15T21:41:17.685Z,1.00
2023-04-15T21:43:44.438Z,1.00
2023-04-15T21:46:22.868Z,1.00
2023-04-15T21:48:53.027Z,1.00
2023-04-15T21:51:20.028Z,1.00
2023-04-15T21:53:46.791Z,1.00
2023-04-15T21:56:13.531Z,1.00
2023-04-15T21:58:40.414Z,1.00
2023-04-15T22:01:07.172Z,4.80
2023-04-15T22:03:35.001Z,13.60
2023-04-15T22:06:05.450Z,22.60
2023-04-15T22:08:41.217Z,22.50
2023-04-15T22:11:18.720Z,20.00
2023-04-15T22:13:45.568Z,26.10
2023-04-15T22:16:12.428Z,34.70
2023-04-15T22:18:39.195Z,42.20
2023-04-15T22:21:06.243Z,57.10
2023-04-15T22:23:33.034Z,65.30
2023-04-15T22:25:59.873Z,86.00
2023-04-15T22:28:26.614Z,91.90
2023-04-15T22:30:54.653Z,96.90
2023-04-15T22:33:21.530Z,86.40
2023-04-15T22:35:48.318Z,99.90
2023-04-15T22:38:15.077Z,91.20
2023-04-15T22:40:42.074Z,97.10
2023-04-15T22:43:08.854Z,90.90
2023-04-15T22:45:35.628Z,99.90
2023-04-15T22:48:02.664Z,99.90
2023-04-15T22:50:29.429Z,99.90
2023-04-15T22:52:56.144Z,99.90
2023-04-15T22:55:23.096Z,99.90
2023-04-15T22:57:49.808Z,99.90
2023-04-15T23:00:16.635Z,99.90
2023-04-15T23:02:43.520Z,99.90
2023-04-15T23:05:11.800Z,99.90
2023-04-15T23:07:39.569Z,99.90
2023-04-15T23:10:08.020Z,99.90
2023-04-15T23:12:34.936Z,99.90
2023-04-15T23:15:01.740Z,99.90
2023-04-15T23:17:28.547Z,99.90
2023-04-15T23:19:55.432Z,99.90
2023-04-15T23:22:22.190Z,99.90
2023-04-15T23:24:48.961Z,99.90
2023-04-15T23:27:17.580Z,99.90
2023-04-15T23:29:44.785Z,99.90
2023-04-15T23:32:11.591Z,99.90
2023-04-15T23:34:38.347Z,99.90
2023-04-15T23:37:05.126Z,99.90
2023-04-15T23:39:31.886Z,99.90
2023-04-15T23:41:58.640Z,99.90
2023-04-15T23:44:25.449Z,99.90
2023-04-15T23:46:52.188Z,99.90
2023-04-15T23:49:20.387Z,99.90
2023-04-15T23:51:47.472Z,99.90
2023-04-15T23:54:17.030Z,99.90
2023-04-15T23:56:43.825Z,99.90
2023-04-15T23:59:10.791Z,99.90
